Francesville, Indiana
Current Conditions -  °F | °C
As of 6:15 AM on Sunday 25 Jan 2015 (Local Time) from KRZL Reporting Station
Haze Haze  
Wind Chill: -3°   Ceiling: 6000
Heat Index:   Visibility: 3mi
Dew Point:   Wind: 6mph
Humidity: 100%   Direction: 40°NE
Pressure: 29.68"   Gusts: NA
Location:  40.99°N, 86.88°W
Report Text: KRZL 251215Z AUTO 04005KT 3SM BR SCT048 BKN060 OVC100 00/00 A2968 RMK AO2
Loading
Personal Weather Stations






























Interactive Weather Map New forecast layout! Learn more

10-Day Weather Forecast

Advertisements
Track Severe Weather on mobile